createdAt,value
2018-05-10T00:00:00.773Z,96231.97
2018-05-10T00:02:28.469Z,96231.70
2018-05-10T00:04:55.988Z,96223.19
2018-05-10T00:07:23.512Z,96225.29
2018-05-10T00:09:51.677Z,96231.25
2018-05-10T00:12:19.189Z,96222.57
2018-05-10T00:14:46.713Z,96219.28
2018-05-10T00:17:14.284Z,96222.59
2018-05-10T00:19:41.804Z,96221.44
2018-05-10T00:22:09.318Z,96221.56
2018-05-10T00:24:37.112Z,96218.13
2018-05-10T00:27:04.641Z,96216.58
2018-05-10T00:29:32.173Z,96220.48
2018-05-10T00:31:59.801Z,96215.55
2018-05-10T00:34:27.312Z,96211.56
2018-05-10T00:36:54.840Z,96213.64
2018-05-10T00:39:22.452Z,96217.78
2018-05-10T00:41:49.960Z,96211.49
2018-05-10T00:44:17.477Z,96213.64
2018-05-10T00:46:45.376Z,96215.81
2018-05-10T00:49:12.904Z,96205.01
2018-05-10T00:51:40.420Z,96207.36
2018-05-10T00:54:08.196Z,96205.95
2018-05-10T00:56:35.718Z,96207.45
2018-05-10T00:59:03.313Z,96206.69
2018-05-10T01:01:31.009Z,96205.41
2018-05-10T01:03:58.533Z,96207.57
2018-05-10T01:06:26.176Z,96204.16
2018-05-10T01:08:53.750Z,96206.45
2018-05-10T01:11:21.390Z,96207.88
2018-05-10T01:13:48.937Z,96209.76
2018-05-10T01:16:20.153Z,96210.77
2018-05-10T01:18:47.845Z,96206.98
2018-05-10T01:21:15.507Z,96209.56
2018-05-10T01:23:43.211Z,96214.09
2018-05-10T01:26:10.729Z,96215.77
2018-05-10T01:28:38.453Z,96215.36
2018-05-10T01:31:06.127Z,96217.45
2018-05-10T01:33:33.637Z,96220.02
2018-05-10T01:36:14.187Z,96221.64
2018-05-10T01:38:41.701Z,96217.06
2018-05-10T01:41:10.740Z,96219.77
2018-05-10T01:43:38.368Z,96222.33
2018-05-10T01:46:05.889Z,96220.75
2018-05-10T01:48:33.422Z,96225.78
2018-05-10T01:51:01.152Z,96225.30
2018-05-10T01:53:28.655Z,96227.98
2018-05-10T01:55:56.240Z,96220.83
2018-05-10T01:58:23.945Z,96219.69
2018-05-10T02:00:52.533Z,96216.77
2018-05-10T02:03:20.776Z,96220.63
2018-05-10T02:05:48.769Z,96227.73
2018-05-10T02:08:16.288Z,96225.70
2018-05-10T02:10:43.897Z,96232.42
2018-05-10T02:13:12.088Z,96231.08
2018-05-10T02:15:39.614Z,96231.23
2018-05-10T02:18:07.129Z,96230.97
2018-05-10T02:20:34.683Z,96233.53
2018-05-10T02:23:02.785Z,96236.89
2018-05-10T02:25:31.118Z,96240.62
2018-05-10T02:27:58.840Z,96243.34
2018-05-10T02:30:26.357Z,96252.09
2018-05-10T02:32:53.895Z,96251.98
2018-05-10T02:35:21.621Z,96246.52
2018-05-10T02:37:49.144Z,96248.78
2018-05-10T02:40:16.660Z,96249.59
2018-05-10T02:42:44.505Z,96251.34
2018-05-10T02:45:12.025Z,96261.53
2018-05-10T02:47:39.538Z,96260.11
2018-05-10T02:50:07.278Z,96269.34
2018-05-10T02:52:34.793Z,96272.03
2018-05-10T02:55:02.330Z,96272.78
2018-05-10T02:57:30.069Z,96276.58
2018-05-10T02:59:57.593Z,96270.32
2018-05-10T03:02:25.113Z,96270.06
2018-05-10T03:04:52.800Z,96275.56
2018-05-10T03:07:20.325Z,96277.20
2018-05-10T03:09:47.844Z,96279.61
2018-05-10T03:12:15.620Z,96280.02
2018-05-10T03:14:43.601Z,96284.58
2018-05-10T03:17:11.129Z,96292.04
2018-05-10T03:19:38.816Z,96291.11
2018-05-10T03:22:06.341Z,96298.03
2018-05-10T03:24:33.865Z,96291.63
2018-05-10T03:27:01.598Z,96298.79
2018-05-10T03:29:29.120Z,96294.55
2018-05-10T03:31:56.660Z,96299.80
2018-05-10T03:34:24.584Z,96301.84
2018-05-10T03:36:52.571Z,96301.45
2018-05-10T03:39:20.097Z,96302.09
2018-05-10T03:41:47.776Z,96301.16
2018-05-10T03:44:15.292Z,96303.40
2018-05-10T03:46:42.812Z,96304.28
2018-05-10T03:49:10.620Z,96306.96
2018-05-10T03:51:38.148Z,96303.55
2018-05-10T03:54:05.688Z,96301.58
2018-05-10T03:56:33.432Z,96302.70
2018-05-10T03:59:00.951Z,96306.05
2018-05-10T04:01:28.466Z,96311.74
2018-05-10T04:04:08.115Z,96312.61
2018-05-10T04:06:47.633Z,96313.08
2018-05-10T04:09:27.164Z,96311.09
2018-05-10T04:11:54.694Z,96315.42
2018-05-10T04:14:22.217Z,96317.68
2018-05-10T04:16:50.056Z,96322.22
2018-05-10T04:19:17.572Z,96328.89
2018-05-10T04:21:45.097Z,96330.97
2018-05-10T04:24:12.953Z,96340.05
2018-05-10T04:26:40.474Z,96342.00
2018-05-10T04:29:08.004Z,96342.95
2018-05-10T04:31:35.560Z,96351.27
2018-05-10T04:34:03.108Z,96346.62
2018-05-10T04:36:30.633Z,96345.38
2018-05-10T04:38:58.603Z,96348.63
2018-05-10T04:41:26.133Z,96346.74
2018-05-10T04:43:53.668Z,96344.28
2018-05-10T04:46:21.386Z,96341.84
2018-05-10T04:48:48.905Z,96346.74
2018-05-10T04:51:16.420Z,96336.94
2018-05-10T04:53:43.973Z,96338.98
2018-05-10T04:56:11.495Z,96343.75
2018-05-10T04:58:39.026Z,96345.50
2018-05-10T05:01:06.746Z,96349.63
2018-05-10T05:03:34.264Z,96348.83
2018-05-10T05:06:01.804Z,96344.55
2018-05-10T05:08:29.728Z,96347.29
2018-05-10T05:10:57.249Z,96351.78
2018-05-10T05:13:24.776Z,96353.64
2018-05-10T05:15:52.344Z,96354.86
2018-05-10T05:18:19.865Z,96356.28
2018-05-10T05:20:47.384Z,96350.86
2018-05-10T05:23:15.084Z,96356.12
2018-05-10T05:25:42.604Z,96360.61
2018-05-10T05:28:10.135Z,96362.41
2018-05-10T05:30:37.968Z,96365.27
2018-05-10T05:33:05.494Z,96369.47
2018-05-10T05:35:33.025Z,96375.36
2018-05-10T05:38:00.750Z,96381.81
2018-05-10T05:40:28.275Z,96372.37
2018-05-10T05:42:55.796Z,96379.33
2018-05-10T05:45:23.528Z,96379.19
2018-05-10T05:47:51.050Z,96378.84
2018-05-10T05:50:18.608Z,96390.12
2018-05-10T05:52:46.334Z,96397.02
2018-05-10T05:55:13.893Z,96401.39
2018-05-10T05:57:41.413Z,96404.24
2018-05-10T06:00:09.080Z,96399.63
2018-05-10T06:02:36.600Z,96413.11
2018-05-10T06:05:04.132Z,96412.47
2018-05-10T06:07:31.889Z,96402.73
2018-05-10T06:09:59.493Z,96405.63
2018-05-10T06:12:27.047Z,96410.04
2018-05-10T06:14:54.619Z,96409.50
2018-05-10T06:17:22.141Z,96404.80
2018-05-10T06:19:49.676Z,96408.15
2018-05-10T06:22:17.459Z,96415.23
2018-05-10T06:24:45.046Z,96415.12
2018-05-10T06:27:12.525Z,96416.67
2018-05-10T06:29:40.320Z,96422.45
2018-05-10T06:32:08.802Z,96420.78
2018-05-10T06:34:36.324Z,96419.63
2018-05-10T06:37:04.217Z,96430.16
2018-05-10T06:39:31.741Z,96435.19
2018-05-10T06:41:59.261Z,96435.24
2018-05-10T06:44:27.126Z,96437.20
2018-05-10T06:46:55.382Z,96441.72
2018-05-10T06:49:23.164Z,96447.08
2018-05-10T06:51:51.023Z,96453.98
2018-05-10T06:54:18.591Z,96464.47
2018-05-10T06:56:46.116Z,96463.87
2018-05-10T06:59:13.684Z,96469.31
2018-05-10T07:01:41.199Z,96475.69
2018-05-10T07:04:08.740Z,96476.81
2018-05-10T07:06:36.668Z,96487.52
2018-05-10T07:09:05.497Z,96481.06
2018-05-10T07:11:33.204Z,96485.80
2018-05-10T07:14:01.113Z,96489.92
2018-05-10T07:16:28.649Z,96499.25
2018-05-10T07:18:56.176Z,96496.97
2018-05-10T07:21:23.790Z,96505.91
2018-05-10T07:23:51.766Z,96501.94
2018-05-10T07:26:19.548Z,96502.95
2018-05-10T07:28:47.475Z,96498.10
2018-05-10T07:31:15.731Z,96512.22
2018-05-10T07:33:43.634Z,96516.53
2018-05-10T07:36:12.122Z,96513.11
2018-05-10T07:38:39.641Z,96516.04
2018-05-10T07:41:07.337Z,96521.67
2018-05-10T07:43:35.411Z,96524.70
2018-05-10T07:46:02.961Z,96532.73
2018-05-10T07:48:30.631Z,96532.72
2018-05-10T07:50:58.497Z,96536.73
2018-05-10T07:53:27.388Z,96542.75
2018-05-10T07:55:55.768Z,96549.84
2018-05-10T07:58:23.762Z,96555.70
2018-05-10T08:00:52.436Z,96554.72
2018-05-10T08:03:20.359Z,96564.98
2018-05-10T08:05:48.343Z,96570.24
2018-05-10T08:08:16.533Z,96570.92
2018-05-10T08:10:44.200Z,96569.80
2018-05-10T08:13:12.044Z,96575.38
2018-05-10T08:15:40.132Z,96580.66
2018-05-10T08:18:08.102Z,96590.90
2018-05-10T08:20:36.123Z,96588.13
2018-05-10T08:23:04.042Z,96590.87
2018-05-10T08:25:31.916Z,96588.44
2018-05-10T08:28:00.048Z,96600.14
2018-05-10T08:30:27.845Z,96602.54
2018-05-10T08:32:55.783Z,96604.06
2018-05-10T08:35:24.602Z,96607.20
2018-05-10T08:37:52.501Z,96608.42
2018-05-10T08:40:20.151Z,96617.86
2018-05-10T08:42:47.995Z,96623.28
2018-05-10T08:45:15.863Z,96624.37
2018-05-10T08:47:43.729Z,96624.98
2018-05-10T08:50:11.492Z,96636.78
2018-05-10T08:52:39.871Z,96638.19
2018-05-10T08:55:07.739Z,96641.37
2018-05-10T08:57:35.587Z,96642.38
2018-05-10T09:00:03.397Z,96646.53
2018-05-10T09:02:31.338Z,96655.67
2018-05-10T09:04:59.410Z,96665.77
2018-05-10T09:07:27.727Z,96665.31
2018-05-10T09:09:55.447Z,96675.98
2018-05-10T09:12:24.213Z,96675.58
2018-05-10T09:14:52.092Z,96677.40
2018-05-10T09:17:20.385Z,96690.27
2018-05-10T09:19:48.180Z,96688.23
2018-05-10T09:22:15.808Z,96696.94
2018-05-10T09:24:43.621Z,96698.70
2018-05-10T09:27:11.950Z,96700.52
2018-05-10T09:29:39.521Z,96702.19
2018-05-10T09:32:07.041Z,96700.25
2018-05-10T09:34:34.934Z,96707.31
2018-05-10T09:37:02.598Z,96711.33
2018-05-10T09:39:30.455Z,96715.58
2018-05-10T09:41:58.127Z,96721.81
2018-05-10T09:44:25.880Z,96719.47
2018-05-10T09:46:53.609Z,96715.19
2018-05-10T09:49:21.314Z,96719.97
2018-05-10T09:51:48.910Z,96717.47
2018-05-10T09:54:16.618Z,96721.38
2018-05-10T09:56:44.301Z,96724.08
2018-05-10T09:59:12.172Z,96722.64
2018-05-10T10:01:39.829Z,96725.40
2018-05-10T10:04:07.578Z,96727.98
2018-05-10T10:06:35.553Z,96731.75
2018-05-10T10:09:03.325Z,96733.50
2018-05-10T10:11:31.113Z,96741.41
2018-05-10T10:13:58.957Z,96744.92
2018-05-10T10:16:26.724Z,96742.64
2018-05-10T10:18:54.895Z,96747.81
2018-05-10T10:21:22.817Z,96745.18
2018-05-10T10:23:50.395Z,96740.52
2018-05-10T10:26:18.700Z,96747.03
2018-05-10T10:28:46.566Z,96744.77
2018-05-10T10:31:14.231Z,96753.81
2018-05-10T10:33:42.299Z,96754.54
2018-05-10T10:36:10.220Z,96756.95
2018-05-10T10:38:38.134Z,96760.92
2018-05-10T10:41:06.209Z,96763.23
2018-05-10T10:43:34.277Z,96758.30
2018-05-10T10:46:02.656Z,96755.27
2018-05-10T10:48:30.821Z,96762.53
2018-05-10T10:50:58.902Z,96762.67
2018-05-10T10:53:26.668Z,96762.63
2018-05-10T10:55:54.807Z,96759.09
2018-05-10T10:58:22.705Z,96768.97
2018-05-10T11:00:50.777Z,96775.22
2018-05-10T11:03:18.850Z,96777.74
2018-05-10T11:05:46.715Z,96777.61
2018-05-10T11:08:14.463Z,96779.42
2018-05-10T11:10:43.165Z,96779.15
2018-05-10T11:13:11.543Z,96783.47
2018-05-10T11:15:39.302Z,96787.91
2018-05-10T11:18:07.281Z,96788.29
2018-05-10T11:20:35.144Z,96793.59
2018-05-10T11:23:03.115Z,96801.09
2018-05-10T11:25:31.184Z,96806.92
2018-05-10T11:27:58.935Z,96810.73
2018-05-10T11:30:26.709Z,96800.53
2018-05-10T11:32:54.856Z,96809.53
2018-05-10T11:35:22.753Z,96809.46
2018-05-10T11:37:50.619Z,96809.75
2018-05-10T11:40:18.595Z,96815.41
2018-05-10T11:42:46.458Z,96813.56
2018-05-10T11:45:14.426Z,96826.58
2018-05-10T11:47:42.601Z,96823.75
2018-05-10T11:50:10.260Z,96826.20
2018-05-10T11:52:38.127Z,96826.22
2018-05-10T11:55:06.096Z,96819.75
2018-05-10T11:57:34.070Z,96822.53
2018-05-10T12:00:02.223Z,96827.63
2018-05-10T12:02:31.738Z,96824.51
2018-05-10T12:04:59.860Z,96828.89
2018-05-10T12:07:27.588Z,96828.16
2018-05-10T12:09:55.184Z,96830.24
2018-05-10T12:12:22.989Z,96818.53
2018-05-10T12:14:51.049Z,96831.28
2018-05-10T12:17:18.843Z,96827.97
2018-05-10T12:19:46.564Z,96828.59
2018-05-10T12:22:14.473Z,96834.58
2018-05-10T12:24:43.500Z,96840.47
2018-05-10T12:27:12.485Z,96842.36
2018-05-10T12:29:40.854Z,96848.77
2018-05-10T12:32:09.148Z,96850.77
2018-05-10T12:34:36.879Z,96851.44
2018-05-10T12:37:04.845Z,96857.25
2018-05-10T12:39:33.107Z,96855.09
2018-05-10T12:42:01.192Z,96864.81
2018-05-10T12:44:29.061Z,96861.05
2018-05-10T12:46:58.452Z,96862.11
2018-05-10T12:49:26.430Z,96862.97
2018-05-10T12:51:54.043Z,96857.62
2018-05-10T12:54:22.984Z,96864.57
2018-05-10T12:56:50.854Z,96866.44
2018-05-10T12:59:18.825Z,96870.45
2018-05-10T13:01:46.676Z,96874.44
2018-05-10T13:04:14.449Z,96877.06
2018-05-10T13:06:43.155Z,96877.50
2018-05-10T13:09:11.823Z,96885.48
2018-05-10T13:11:39.648Z,96888.95
2018-05-10T13:14:07.656Z,96895.86
2018-05-10T13:16:35.349Z,96906.53
2018-05-10T13:19:03.025Z,96907.90
2018-05-10T13:21:30.846Z,96906.59
2018-05-10T13:23:58.577Z,96913.49
2018-05-10T13:26:26.380Z,96914.20
2018-05-10T13:28:54.267Z,96910.66
2018-05-10T13:31:22.210Z,96926.73
2018-05-10T13:33:50.096Z,96923.64
2018-05-10T13:36:17.944Z,96928.34
2018-05-10T13:38:46.082Z,96937.59
2018-05-10T13:41:13.759Z,96954.80
2018-05-10T13:43:41.647Z,96953.14
2018-05-10T13:46:10.536Z,96963.36
2018-05-10T13:48:38.611Z,96972.52
2018-05-10T13:51:06.474Z,96968.97
2018-05-10T13:53:34.853Z,96975.09
2018-05-10T13:56:02.821Z,96975.41
2018-05-10T13:58:30.892Z,96979.05
2018-05-10T14:00:59.169Z,96989.47
2018-05-10T14:03:27.037Z,96998.78
2018-05-10T14:05:54.980Z,97012.00
2018-05-10T14:08:22.974Z,97011.10
2018-05-10T14:10:51.005Z,97019.53
2018-05-10T14:13:19.730Z,97025.06
2018-05-10T14:15:48.403Z,97018.65
2018-05-10T14:18:16.284Z,97029.24
2018-05-10T14:20:44.253Z,97031.05
2018-05-10T14:23:12.135Z,97038.26
2018-05-10T14:25:40.113Z,97040.94
2018-05-10T14:28:08.058Z,97040.33
2018-05-10T14:30:36.230Z,97050.86
2018-05-10T14:33:04.098Z,97058.44
2018-05-10T14:35:32.158Z,97054.67
2018-05-10T14:38:01.162Z,97066.06
2018-05-10T14:40:29.196Z,97062.59
2018-05-10T14:42:57.612Z,97058.61
2018-05-10T14:45:26.400Z,97076.77
2018-05-10T14:47:54.369Z,97083.51
2018-05-10T14:50:23.260Z,97097.02
2018-05-10T14:52:52.149Z,97112.32
2018-05-10T14:55:20.017Z,97107.75
2018-05-10T14:57:47.986Z,97118.60
2018-05-10T15:00:17.084Z,97120.00
2018-05-10T15:02:45.146Z,97124.31
2018-05-10T15:05:13.019Z,97122.06
2018-05-10T15:07:41.401Z,97132.64
2018-05-10T15:10:09.367Z,97136.53
2018-05-10T15:12:37.233Z,97134.05
2018-05-10T15:15:06.840Z,97150.72
2018-05-10T15:17:34.871Z,97146.23
2018-05-10T15:20:02.742Z,97154.80
2018-05-10T15:22:30.644Z,97154.08
2018-05-10T15:24:58.716Z,97150.82
2018-05-10T15:27:26.638Z,97163.91
2018-05-10T15:29:54.910Z,97170.02
2018-05-10T15:32:24.007Z,97167.85
2018-05-10T15:34:52.096Z,97176.84
2018-05-10T15:37:20.612Z,97183.33
2018-05-10T15:39:48.548Z,97189.34
2018-05-10T15:42:16.650Z,97191.41
2018-05-10T15:44:44.823Z,97188.33
2018-05-10T15:47:12.827Z,97200.53
2018-05-10T15:49:41.010Z,97194.92
2018-05-10T15:52:09.432Z,97198.78
2018-05-10T15:54:38.133Z,97202.22
2018-05-10T15:57:05.999Z,97214.64
2018-05-10T15:59:34.172Z,97208.84
2018-05-10T16:02:02.148Z,97213.86
2018-05-10T16:04:30.419Z,97223.77
2018-05-10T16:06:58.718Z,97224.02
2018-05-10T16:09:26.766Z,97222.91
2018-05-10T16:11:54.633Z,97227.38
2018-05-10T16:14:22.602Z,97238.86
2018-05-10T16:16:52.211Z,97232.16
2018-05-10T16:19:19.988Z,97236.67
2018-05-10T16:21:48.250Z,97245.27
2018-05-10T16:24:16.219Z,97245.27
2018-05-10T16:26:45.007Z,97250.27
2018-05-10T16:29:13.183Z,97255.99
2018-05-10T16:31:41.047Z,97252.23
2018-05-10T16:34:08.913Z,97259.96
2018-05-10T16:36:36.882Z,97256.89
2018-05-10T16:39:05.831Z,97260.20
2018-05-10T16:41:34.152Z,97267.34
2018-05-10T16:44:02.325Z,97274.78
2018-05-10T16:46:30.499Z,97271.13
2018-05-10T16:48:58.468Z,97279.05
2018-05-10T16:51:26.438Z,97287.56
2018-05-10T16:53:54.304Z,97286.44
2018-05-10T16:56:22.171Z,97295.66
2018-05-10T16:58:50.549Z,97298.59
2018-05-10T17:01:18.418Z,97298.53
2018-05-10T17:03:47.306Z,97310.95
2018-05-10T17:06:15.541Z,97312.94
2018-05-10T17:08:43.449Z,97311.55
2018-05-10T17:11:11.417Z,97320.58
2018-05-10T17:13:39.591Z,97320.52
2018-05-10T17:16:08.181Z,97326.94
2018-05-10T17:18:36.017Z,97330.58
2018-05-10T17:21:04.215Z,97339.60
2018-05-10T17:23:33.823Z,97342.08
2018-05-10T17:26:01.797Z,97355.81
2018-05-10T17:28:30.069Z,97357.27
2018-05-10T17:30:59.009Z,97368.41
2018-05-10T17:33:26.927Z,97366.33
2018-05-10T17:35:55.011Z,97368.03
2018-05-10T17:38:22.867Z,97372.89
2018-05-10T17:40:50.644Z,97377.08
2018-05-10T17:43:19.325Z,97385.52
2018-05-10T17:45:47.613Z,97384.56
2018-05-10T17:48:15.514Z,97388.55
2018-05-10T17:50:43.433Z,97388.27
2018-05-10T17:53:11.398Z,97394.41
2018-05-10T17:55:39.174Z,97401.69
2018-05-10T17:58:07.149Z,97399.89
2018-05-10T18:00:35.099Z,97403.47
2018-05-10T18:03:02.964Z,97407.01
2018-05-10T18:05:30.949Z,97417.95
2018-05-10T18:07:58.800Z,97421.98
2018-05-10T18:10:26.733Z,97420.55
2018-05-10T18:12:54.841Z,97428.11
2018-05-10T18:15:22.503Z,97425.05
2018-05-10T18:17:50.733Z,97434.31
2018-05-10T18:20:18.527Z,97435.52
2018-05-10T18:22:46.618Z,97441.79
2018-05-10T18:25:15.001Z,97441.58
2018-05-10T18:27:43.269Z,97440.56
2018-05-10T18:30:11.195Z,97446.28
2018-05-10T18:32:39.061Z,97451.50
2018-05-10T18:35:07.278Z,97453.10
2018-05-10T18:37:35.050Z,97453.66
2018-05-10T18:40:03.137Z,97464.94
2018-05-10T18:42:31.186Z,97467.66
2018-05-10T18:44:58.972Z,97473.86
2018-05-10T18:47:26.793Z,97481.69
2018-05-10T18:49:54.683Z,97483.62
2018-05-10T18:52:22.472Z,97486.74
2018-05-10T18:54:50.348Z,97494.28
2018-05-10T18:57:18.854Z,97491.69
2018-05-10T18:59:47.174Z,97491.59
2018-05-10T19:02:16.371Z,97495.23
2018-05-10T19:04:44.135Z,97506.65
2018-05-10T19:07:12.465Z,97512.76
2018-05-10T19:09:40.278Z,97522.59
2018-05-10T19:12:08.351Z,97518.94
2018-05-10T19:14:36.215Z,97525.76
2018-05-10T19:17:04.185Z,97529.91
2018-05-10T19:19:32.107Z,97532.89
2018-05-10T19:21:59.911Z,97533.47
2018-05-10T19:24:27.767Z,97541.56
2018-05-10T19:26:55.551Z,97546.20
2018-05-10T19:29:23.290Z,97552.51
2018-05-10T19:31:51.474Z,97549.00
2018-05-10T19:34:19.354Z,97550.88
2018-05-10T19:36:47.220Z,97547.93
2018-05-10T19:39:16.417Z,97553.17
2018-05-10T19:41:45.719Z,97555.34
2018-05-10T19:44:13.690Z,97555.55
2018-05-10T19:46:41.553Z,97554.66
2018-05-10T19:49:09.556Z,97559.42
2018-05-10T19:51:37.491Z,97569.03
2018-05-10T19:54:05.298Z,97569.30
2018-05-10T19:56:33.164Z,97573.86
2018-05-10T19:59:00.988Z,97577.88
2018-05-10T20:01:28.857Z,97580.82
2018-05-10T20:03:57.143Z,97584.50
2018-05-10T20:06:25.408Z,97585.74
2018-05-10T20:08:53.248Z,97593.66
2018-05-10T20:11:21.244Z,97589.58
2018-05-10T20:13:49.118Z,97593.15
2018-05-10T20:16:17.180Z,97598.31
2018-05-10T20:18:45.578Z,97604.67
2018-05-10T20:21:13.517Z,97607.51
2018-05-10T20:23:41.351Z,97606.70
2018-05-10T20:26:09.263Z,97610.86
2018-05-10T20:28:37.588Z,97620.08
2018-05-10T20:31:05.620Z,97616.13
2018-05-10T20:33:33.989Z,97613.42
2018-05-10T20:36:02.821Z,97620.81
2018-05-10T20:38:31.975Z,97621.13
2018-05-10T20:41:00.256Z,97616.37
2018-05-10T20:43:29.339Z,97613.98
2018-05-10T20:45:57.212Z,97614.70
2018-05-10T20:48:25.348Z,97612.48
2018-05-10T20:50:53.254Z,97615.30
2018-05-10T20:53:21.120Z,97615.72
2018-05-10T20:55:49.346Z,97616.36
2018-05-10T20:58:17.980Z,97617.98
2018-05-10T21:00:45.952Z,97619.91
2018-05-10T21:03:14.020Z,97627.04
2018-05-10T21:05:41.784Z,97621.75
2018-05-10T21:08:09.664Z,97625.09
2018-05-10T21:10:37.823Z,97625.97
2018-05-10T21:13:05.595Z,97626.79
2018-05-10T21:15:33.557Z,97627.33
2018-05-10T21:18:04.920Z,97629.08
2018-05-10T21:20:32.776Z,97628.41
2018-05-10T21:23:00.434Z,97637.70
2018-05-10T21:25:28.196Z,97632.88
2018-05-10T21:27:56.066Z,97634.91
2018-05-10T21:30:23.930Z,97636.66
2018-05-10T21:32:52.616Z,97637.95
2018-05-10T21:35:20.513Z,97645.72
2018-05-10T21:37:48.555Z,97643.66
2018-05-10T21:40:16.626Z,97638.47
2018-05-10T21:42:45.319Z,97642.85
2018-05-10T21:45:20.350Z,97640.96
2018-05-10T21:47:48.011Z,97639.27
2018-05-10T21:50:15.598Z,97639.72
2018-05-10T21:52:44.005Z,97644.73
2018-05-10T21:55:12.017Z,97654.44
2018-05-10T21:57:39.601Z,97653.80
2018-05-10T22:00:07.544Z,97651.42
2018-05-10T22:02:35.313Z,97658.66
2018-05-10T22:05:02.973Z,97660.66
2018-05-10T22:07:30.891Z,97661.61
2018-05-10T22:09:58.681Z,97656.59
2018-05-10T22:12:26.246Z,97656.09
2018-05-10T22:14:54.028Z,97651.36
2018-05-10T22:17:21.566Z,97658.95
2018-05-10T22:19:49.444Z,97662.74
2018-05-10T22:22:17.147Z,97660.82
2018-05-10T22:24:45.594Z,97666.78
2018-05-10T22:27:13.326Z,97663.73
2018-05-10T22:29:41.121Z,97662.31
2018-05-10T22:32:08.658Z,97661.08
2018-05-10T22:34:36.369Z,97662.22
2018-05-10T22:37:05.239Z,97663.89
2018-05-10T22:39:32.768Z,97658.45
2018-05-10T22:42:00.297Z,97658.08
2018-05-10T22:44:27.952Z,97660.75
2018-05-10T22:46:55.437Z,97661.63
2018-05-10T22:49:22.979Z,97660.77
2018-05-10T22:51:52.272Z,97654.77
2018-05-10T22:54:19.813Z,97663.50
2018-05-10T22:56:47.352Z,97661.11
2018-05-10T22:59:15.180Z,97664.86
2018-05-10T23:01:42.725Z,97664.84
2018-05-10T23:04:10.256Z,97663.41
2018-05-10T23:06:38.001Z,97661.66
2018-05-10T23:09:06.377Z,97658.89
2018-05-10T23:11:33.940Z,97654.77
2018-05-10T23:14:01.597Z,97648.23
2018-05-10T23:16:29.125Z,97643.97
2018-05-10T23:18:56.710Z,97646.04
2018-05-10T23:21:24.787Z,97641.84
2018-05-10T23:23:52.582Z,97641.13
2018-05-10T23:26:20.680Z,97642.65
2018-05-10T23:28:48.308Z,97641.44
2018-05-10T23:31:15.897Z,97640.55
2018-05-10T23:33:44.409Z,97640.75
2018-05-10T23:36:12.174Z,97635.69
2018-05-10T23:38:39.702Z,97640.98
2018-05-10T23:41:07.234Z,97632.18
2018-05-10T23:43:35.154Z,97631.66
2018-05-10T23:46:02.955Z,97633.11
2018-05-10T23:48:30.600Z,97627.22
2018-05-10T23:50:58.162Z,97625.80
2018-05-10T23:53:25.712Z,97631.61
2018-05-10T23:55:53.236Z,97626.12
2018-05-10T23:58:21.024Z,97624.70
